Terminal Aerodrome Forecast
Issued by NWS

Home | Current Version | Previous Version | Text Only | Print | Product List | Glossary On
Versions: 1 2 3 4 5 6 7 8 9 10 11 12 13 14 15 16 17
000
FTUS46 KSEW 191730
TAFHQM
TAF
KHQM 191730Z 1918/2018 27005KT P6SM BKN022
     FM192000 27012KT P6SM SCT030 SCT250
     FM200900 29006KT 5SM BR OVC006=

USA.gov is the U.S. government's official web portal to all federal, state and local government web resources and services.